N.dadayli — TCCW7 — position and weather

sailwx.info

Track history (hours):
 
Tides and Currents Weather Stations Pressure Air Temp Water Temp Dewpoint Dewpoint Depression Visibility Wind Speed Wind Dir Waves Ship Positions

N.dadayli

Last reported at 2017-May-22 17:00 UTC. Time now 2017-May-22 17:22 UTC.
Position N 44°43' E 013°03'.

Length 101 m; draft 8 m.

Type: Cargo ship. MMSI: 271000768.

Date/timePositionNaut miles runAvg speedWind from/ knotsBaromVisibWave heightAir tempDewpointWater temp
2017-May-22 17:00N 44°43' E 013°03'510.8
2017-May-22 16:30N 44°38' E 013°06'510.8
2017-May-22 16:00N 44°33' E 013°08'510.8
2017-May-22 15:30N 44°27' E 013°10'510.9
2017-May-22 15:00N 44°22' E 013°13'1110.6
2017-May-22 14:00N 44°14' E 013°22'2710.6
2017-May-22 11:25N 43°57' E 013°52'  
2017-May-17 14:15N 37°13' E 024°49'912.3
2017-May-17 13:30N 37°19' E 024°57'612.7
2017-May-17 13:00N 37°24' E 025°03'612.7
2017-May-17 12:30N 37°27' E 025°09'713.3
2017-May-17 12:00N 37°31' E 025°16'612.4
2017-May-17 11:30N 37°35' E 025°22'611.9
2017-May-17 11:00N 37°39' E 025°28'611.9
2017-May-17 10:30N 37°43' E 025°33'611.8
2017-May-17 10:00N 37°47' E 025°39'  
Track history (hours):
 
Tides and Currents Weather Stations Pressure Air Temp Water Temp Dewpoint Dewpoint Depression Visibility Wind Speed Wind Dir Waves Ship Positions

N.dadayli

Last reported at 2017-May-22 17:00 UTC. Time now 2017-May-22 17:22 UTC.
Position N 44°43' E 013°03'.

Length 101 m; draft 8 m.

Type: Cargo ship. MMSI: 271000768.

Date/timePositionNaut miles runAvg speedWind from/ knotsBaromVisibWave heightAir tempDewpointWater temp
2017-May-22 17:00N 44°43' E 013°03'510.8
2017-May-22 16:30N 44°38' E 013°06'510.8
2017-May-22 16:00N 44°33' E 013°08'510.8
2017-May-22 15:30N 44°27' E 013°10'510.9
2017-May-22 15:00N 44°22' E 013°13'1110.6
2017-May-22 14:00N 44°14' E 013°22'2710.6
2017-May-22 11:25N 43°57' E 013°52'  
2017-May-17 14:15N 37°13' E 024°49'912.3
2017-May-17 13:30N 37°19' E 024°57'612.7
2017-May-17 13:00N 37°24' E 025°03'612.7
2017-May-17 12:30N 37°27' E 025°09'713.3
2017-May-17 12:00N 37°31' E 025°16'612.4
2017-May-17 11:30N 37°35' E 025°22'611.9
2017-May-17 11:00N 37°39' E 025°28'611.9
2017-May-17 10:30N 37°43' E 025°33'611.8
2017-May-17 10:00N 37°47' E 025°39'  

Dump ship's entire track history